MSC Maeva — H9TF — position and weather

sailwx.info

Track history (hours):
 
Tides and Currents Weather Stations Pressure Air Temp Water Temp Dewpoint Dewpoint Depression Visibility Wind Speed Wind Dir Waves Ship Positions

MSC Maeva

Last reported at 2017-Dec-14 06:50 UTC. Time now 2017-Dec-15 04:14 UTC.
Position N 37°45' W 000°21'.

Type: Ship (hazmat cat A). MMSI: 371851000.

Date/timePositionNaut miles runAvg speedWind from/ knotsBaromVisibWave heightAir tempDewpointWater temp
2017-Dec-14 06:50N 37°45' W 000°21'616.1
2017-Dec-14 06:29N 37°40' W 000°25'816.2
2017-Dec-14 06:00N 37°34' W 000°30'816.2
2017-Dec-14 05:30N 37°28' W 000°38'816.1
2017-Dec-14 05:00N 37°23' W 000°45'816.0
2017-Dec-14 04:30N 37°18' W 000°53'815.9
2017-Dec-14 04:00N 37°12' W 001°00'  
2017-Dec-11 02:22N 36°41' W 023°44'615.8
2017-Dec-11 02:01N 36°41' W 023°51'815.9
2017-Dec-11 01:30N 36°42' W 024°01'816.2
2017-Dec-11 01:00N 36°43' W 024°11'816.3
2017-Dec-11 00:30N 36°43' W 024°21'816.2
2017-Dec-11 00:00N 36°44' W 024°31'816.2
2017-Dec-10 23:30N 36°44' W 024°41'816.3
2017-Dec-10 23:00N 36°44' W 024°51'816.1
2017-Dec-10 22:30N 36°45' W 025°01'816.2
2017-Dec-10 22:00N 36°46' W 025°11'816.3
2017-Dec-10 21:30N 36°47' W 025°21'816.2
2017-Dec-10 21:00N 36°48' W 025°31'816.2
2017-Dec-10 20:30N 36°49' W 025°41'816.5
2017-Dec-10 20:00N 36°50' W 025°52'816.2
2017-Dec-10 19:30N 36°51' W 026°02'816.2
2017-Dec-10 19:00N 36°52' W 026°12'816.2
2017-Dec-10 18:30N 36°53' W 026°22'816.2
2017-Dec-10 18:00N 36°54' W 026°32'816.3
2017-Dec-10 17:31N 36°55' W 026°42'816.4
2017-Dec-10 17:00N 36°56' W 026°52'6116.1
2017-Dec-10 13:13N 37°04' W 028°08'2715.8
2017-Dec-10 11:32N 37°07' W 028°41'215.4
2017-Dec-10 11:24N 37°07' W 028°44'616.0
2017-Dec-10 11:00N 37°08' W 028°52'2116.5
2017-Dec-10 09:43N 37°10' W 029°18'316.1
2017-Dec-10 09:30N 37°11' W 029°22'816.3
2017-Dec-10 09:00N 37°12' W 029°33'816.4
2017-Dec-10 08:30N 37°13' W 029°43'1916.3
2017-Dec-10 07:21N 37°16' W 030°06'616.6
2017-Dec-10 06:59N 37°17' W 030°14'916.4
2017-Dec-10 06:26N 37°18' W 030°25'716.2
2017-Dec-10 06:01N 37°19' W 030°33'816.5
2017-Dec-10 05:30N 37°20' W 030°44'1316.0
2017-Dec-10 04:40N 37°21' W 031°00'416.1
2017-Dec-10 04:26N 37°22' W 031°05'2715.7
2017-Dec-10 02:44N 37°26' W 031°39'  
Track history (hours):
 
Tides and Currents Weather Stations Pressure Air Temp Water Temp Dewpoint Dewpoint Depression Visibility Wind Speed Wind Dir Waves Ship Positions

MSC Maeva

Last reported at 2017-Dec-14 06:50 UTC. Time now 2017-Dec-15 04:14 UTC.
Position N 37°45' W 000°21'.

Type: Ship (hazmat cat A). MMSI: 371851000.

Date/timePositionNaut miles runAvg speedWind from/ knotsBaromVisibWave heightAir tempDewpointWater temp
2017-Dec-14 06:50N 37°45' W 000°21'616.1
2017-Dec-14 06:29N 37°40' W 000°25'816.2
2017-Dec-14 06:00N 37°34' W 000°30'816.2
2017-Dec-14 05:30N 37°28' W 000°38'816.1
2017-Dec-14 05:00N 37°23' W 000°45'816.0
2017-Dec-14 04:30N 37°18' W 000°53'815.9
2017-Dec-14 04:00N 37°12' W 001°00'  
2017-Dec-11 02:22N 36°41' W 023°44'615.8
2017-Dec-11 02:01N 36°41' W 023°51'815.9
2017-Dec-11 01:30N 36°42' W 024°01'816.2
2017-Dec-11 01:00N 36°43' W 024°11'816.3
2017-Dec-11 00:30N 36°43' W 024°21'816.2
2017-Dec-11 00:00N 36°44' W 024°31'816.2
2017-Dec-10 23:30N 36°44' W 024°41'816.3
2017-Dec-10 23:00N 36°44' W 024°51'816.1
2017-Dec-10 22:30N 36°45' W 025°01'816.2
2017-Dec-10 22:00N 36°46' W 025°11'816.3
2017-Dec-10 21:30N 36°47' W 025°21'816.2
2017-Dec-10 21:00N 36°48' W 025°31'816.2
2017-Dec-10 20:30N 36°49' W 025°41'816.5
2017-Dec-10 20:00N 36°50' W 025°52'816.2
2017-Dec-10 19:30N 36°51' W 026°02'816.2
2017-Dec-10 19:00N 36°52' W 026°12'816.2
2017-Dec-10 18:30N 36°53' W 026°22'816.2
2017-Dec-10 18:00N 36°54' W 026°32'816.3
2017-Dec-10 17:31N 36°55' W 026°42'816.4
2017-Dec-10 17:00N 36°56' W 026°52'6116.1
2017-Dec-10 13:13N 37°04' W 028°08'2715.8
2017-Dec-10 11:32N 37°07' W 028°41'215.4
2017-Dec-10 11:24N 37°07' W 028°44'616.0
2017-Dec-10 11:00N 37°08' W 028°52'2116.5
2017-Dec-10 09:43N 37°10' W 029°18'316.1
2017-Dec-10 09:30N 37°11' W 029°22'816.3
2017-Dec-10 09:00N 37°12' W 029°33'816.4
2017-Dec-10 08:30N 37°13' W 029°43'1916.3
2017-Dec-10 07:21N 37°16' W 030°06'616.6
2017-Dec-10 06:59N 37°17' W 030°14'916.4
2017-Dec-10 06:26N 37°18' W 030°25'716.2
2017-Dec-10 06:01N 37°19' W 030°33'816.5
2017-Dec-10 05:30N 37°20' W 030°44'1316.0
2017-Dec-10 04:40N 37°21' W 031°00'416.1
2017-Dec-10 04:26N 37°22' W 031°05'2715.7
2017-Dec-10 02:44N 37°26' W 031°39'  

Dump ship's entire track history